createdAt,value
2022-12-11T00:03:22.552Z,100783.69
2022-12-11T00:08:24.513Z,100806.72
2022-12-11T00:13:27.483Z,100804.16
2022-12-11T00:18:33.258Z,100799.94
2022-12-11T00:23:36.511Z,100797.00
2022-12-11T00:28:38.619Z,100791.66
2022-12-11T00:33:40.800Z,100777.78
2022-12-11T00:38:43.777Z,100773.06
2022-12-11T00:43:46.205Z,100771.66
2022-12-11T00:48:50.015Z,100784.31
2022-12-11T00:53:52.510Z,100789.81
2022-12-11T00:58:54.536Z,100789.06
2022-12-11T01:03:56.450Z,100780.75
2022-12-11T01:09:16.770Z,100772.75
2022-12-11T01:14:25.076Z,100773.72
2022-12-11T01:19:27.274Z,100758.28
2022-12-11T01:24:29.260Z,100776.19
2022-12-11T01:29:31.348Z,100773.94
2022-12-11T01:34:33.891Z,100794.22
2022-12-11T01:39:36.254Z,100795.28
2022-12-11T01:44:38.145Z,100803.66
2022-12-11T01:49:42.209Z,100810.38
2022-12-11T01:54:45.929Z,100814.75
2022-12-11T01:59:47.970Z,100826.16
2022-12-11T02:05:14.238Z,100834.97
2022-12-11T02:10:16.544Z,100843.22
2022-12-11T02:15:28.759Z,100821.31
2022-12-11T02:20:54.459Z,100808.56
2022-12-11T02:26:18.063Z,100790.19
2022-12-11T02:31:23.072Z,100792.66
2022-12-11T02:36:39.054Z,100798.06
2022-12-11T02:41:47.030Z,100783.44
2022-12-11T02:46:49.643Z,100764.72
2022-12-11T02:51:52.582Z,100759.78
2022-12-11T02:57:01.865Z,100754.88
2022-12-11T03:02:05.196Z,100745.31
2022-12-11T03:07:15.297Z,100737.41
2022-12-11T03:12:22.088Z,100727.88
2022-12-11T03:17:31.291Z,100721.06
2022-12-11T03:22:44.033Z,100718.03
2022-12-11T03:28:10.452Z,100727.22
2022-12-11T03:33:31.487Z,100726.41
2022-12-11T03:38:51.974Z,100733.47
2022-12-11T03:44:01.274Z,100739.38
2022-12-11T03:49:09.971Z,100730.41
2022-12-11T03:54:16.772Z,100742.31
2022-12-11T03:59:18.686Z,100736.06
2022-12-11T04:04:20.943Z,100724.66
2022-12-11T04:09:22.880Z,100726.53
2022-12-11T04:14:52.484Z,100713.59
2022-12-11T04:20:13.009Z,100713.09
2022-12-11T04:25:14.856Z,100708.84
2022-12-11T04:30:29.324Z,100693.41
2022-12-11T04:35:34.427Z,100692.56
2022-12-11T04:40:36.934Z,100712.13
2022-12-11T04:45:45.985Z,100712.13
2022-12-11T04:50:48.073Z,100715.91
2022-12-11T04:55:49.967Z,100733.22
2022-12-11T05:07:35.621Z,100722.63
2022-12-11T05:13:44.628Z,100715.06
2022-12-11T05:18:51.370Z,100702.59
2022-12-11T05:23:54.469Z,100702.59
2022-12-11T05:28:56.514Z,100697.19
2022-12-11T05:33:58.490Z,100698.81
2022-12-11T05:39:01.792Z,100683.38
2022-12-11T05:44:08.492Z,100675.25
2022-12-11T05:49:11.186Z,100673.03
2022-12-11T06:22:57.617Z,100665.25
2022-12-11T06:27:59.720Z,100681.25
2022-12-11T06:33:02.903Z,100664.75
2022-12-11T06:38:04.802Z,100661.56
2022-12-11T06:43:06.726Z,100676.50
2022-12-11T06:48:08.585Z,100658.13
2022-12-11T06:53:13.719Z,100653.03
2022-12-11T06:58:16.826Z,100651.97
2022-12-11T07:03:19.718Z,100659.84
2022-12-11T07:08:24.192Z,100654.44
2022-12-11T07:13:27.691Z,100654.44
2022-12-11T07:18:32.428Z,100647.94
2022-12-11T07:23:35.496Z,100630.13
2022-12-11T07:28:37.491Z,100636.94
2022-12-11T07:33:40.141Z,100635.63
2022-12-11T07:38:42.129Z,100645.66
2022-12-11T07:43:47.756Z,100649.19
2022-12-11T07:48:52.464Z,100646.47
2022-12-11T07:54:12.081Z,100646.53
2022-12-11T07:59:14.729Z,100639.88
2022-12-11T08:04:16.683Z,100629.44
2022-12-11T08:09:23.202Z,100637.47
2022-12-11T08:14:25.083Z,100634.59
2022-12-11T08:19:55.933Z,100632.59
2022-12-11T08:24:59.239Z,100640.31
2022-12-11T08:30:08.670Z,100649.56
2022-12-11T08:35:12.191Z,100649.31
2022-12-11T08:40:14.468Z,100647.75
2022-12-11T08:45:16.508Z,100645.63
2022-12-11T08:50:18.627Z,100635.66
2022-12-11T08:55:22.182Z,100640.91
2022-12-11T09:00:27.932Z,100631.19
2022-12-11T09:05:31.747Z,100635.53
2022-12-11T09:10:34.906Z,100633.38
2022-12-11T09:15:40.756Z,100628.22
2022-12-11T09:20:43.789Z,100641.53
2022-12-11T09:25:55.618Z,100659.72
2022-12-11T09:31:00.736Z,100646.13
2022-12-11T09:36:06.090Z,100653.25
2022-12-11T09:41:22.966Z,100655.47
2022-12-11T09:46:30.548Z,100659.56
2022-12-11T09:51:49.591Z,100657.13
2022-12-11T09:57:38.362Z,100673.91
2022-12-11T10:03:10.702Z,100674.41
2022-12-11T10:08:15.706Z,100686.84
2022-12-11T10:13:48.274Z,100665.66
2022-12-11T10:18:52.989Z,100663.19
2022-12-11T10:24:40.794Z,100681.34
2022-12-11T10:29:40.875Z,100685.78
2022-12-11T10:34:49.100Z,100662.75
2022-12-11T10:40:03.623Z,100646.25
2022-12-11T10:45:07.256Z,100643.19
2022-12-11T10:50:24.404Z,100635.78
2022-12-11T10:55:46.909Z,100628.66
2022-12-11T11:01:11.105Z,100620.94
2022-12-11T11:06:18.272Z,100603.06
2022-12-11T11:11:33.797Z,100606.63
2022-12-11T11:16:41.544Z,100613.94
2022-12-11T11:21:50.763Z,100621.50
2022-12-11T11:27:12.899Z,100593.19
2022-12-11T11:32:38.888Z,100589.88
2022-12-11T11:43:43.539Z,100576.56
2022-12-11T11:48:54.842Z,100563.81
2022-12-11T11:54:37.368Z,100568.50
2022-12-11T12:00:16.616Z,100560.16
2022-12-11T12:05:31.301Z,100563.47
2022-12-11T12:11:08.815Z,100546.88
2022-12-11T12:16:53.445Z,100525.97
2022-12-11T12:21:57.486Z,100532.25
2022-12-11T12:32:48.804Z,100533.63
2022-12-11T12:38:02.160Z,100525.47
2022-12-11T12:43:43.006Z,100504.53
2022-12-11T12:48:48.093Z,100488.78
2022-12-11T12:53:56.795Z,100496.47
2022-12-11T12:59:02.319Z,100489.66
2022-12-11T13:04:20.763Z,100490.47
2022-12-11T13:09:29.832Z,100479.59
2022-12-11T13:14:34.753Z,100452.94
2022-12-11T13:19:42.573Z,100437.72
2022-12-11T13:24:59.636Z,100421.69
2022-12-11T13:30:26.657Z,100403.50
2022-12-11T13:35:30.787Z,100395.06
2022-12-11T13:40:46.624Z,100382.00
2022-12-11T13:45:56.201Z,100389.09
2022-12-11T13:51:02.474Z,100371.66
2022-12-11T13:56:07.622Z,100373.31
2022-12-11T14:01:27.678Z,100359.69
2022-12-11T14:06:36.277Z,100373.84
2022-12-11T14:11:42.363Z,100371.66
2022-12-11T14:16:48.595Z,100377.66
2022-12-11T14:22:04.636Z,100366.22
2022-12-11T14:27:16.743Z,100383.31
2022-12-11T14:32:32.518Z,100378.59
2022-12-11T14:37:35.563Z,100392.09
2022-12-11T14:42:44.201Z,100380.09
2022-12-11T14:47:47.789Z,100381.69
2022-12-11T14:52:58.580Z,100381.13
2022-12-11T14:58:16.358Z,100380.56
2022-12-11T15:03:18.271Z,100378.88
2022-12-11T15:08:29.294Z,100377.25
2022-12-11T15:13:33.068Z,100365.03
2022-12-11T15:18:40.863Z,100367.44
2022-12-11T15:23:53.324Z,100368.78
2022-12-11T15:29:01.005Z,100362.25
2022-12-11T15:34:21.300Z,100353.84
2022-12-11T15:39:24.480Z,100352.78
2022-12-11T15:44:26.467Z,100368.03
2022-12-11T15:49:28.527Z,100366.47
2022-12-11T15:54:30.703Z,100369.78
2022-12-11T15:59:33.470Z,100370.91
2022-12-11T16:04:38.350Z,100372.56
2022-12-11T16:09:40.366Z,100371.50
2022-12-11T16:14:43.660Z,100361.72
2022-12-11T16:19:50.665Z,100378.03
2022-12-11T16:24:55.766Z,100366.06
2022-12-11T16:30:01.763Z,100375.84
2022-12-11T16:35:03.958Z,100370.97
2022-12-11T16:40:06.840Z,100370.16
2022-12-11T16:45:16.658Z,100371.53
2022-12-11T16:50:19.015Z,100373.16
2022-12-11T16:55:22.403Z,100362.28
2022-12-11T17:00:24.421Z,100362.00
2022-12-11T17:05:26.422Z,100351.94
2022-12-11T17:10:28.529Z,100344.34
2022-12-11T17:15:30.648Z,100346.53
2022-12-11T17:20:32.638Z,100348.16
2022-12-11T17:25:41.646Z,100362.84
2022-12-11T17:30:45.888Z,100363.34
2022-12-11T17:35:47.877Z,100370.63
2022-12-11T17:40:49.771Z,100373.59
2022-12-11T17:45:52.763Z,100371.94
2022-12-11T17:50:55.903Z,100371.09
2022-12-11T17:56:03.655Z,100378.34
2022-12-11T18:01:13.351Z,100391.19
2022-12-11T18:06:18.446Z,100383.34
2022-12-11T18:11:23.908Z,100394.25
2022-12-11T18:16:32.397Z,100401.91
2022-12-11T18:21:40.472Z,100393.25
2022-12-11T18:26:43.944Z,100411.75
2022-12-11T18:31:59.477Z,100415.03
2022-12-11T18:37:02.510Z,100415.06
2022-12-11T18:42:31.873Z,100418.34
2022-12-11T18:47:28.301Z,100427.84
2022-12-11T18:52:30.456Z,100442.00
2022-12-11T18:57:33.877Z,100424.88
2022-12-11T19:02:37.487Z,100419.97
2022-12-11T19:07:39.517Z,100426.81
2022-12-11T19:12:45.857Z,100446.41
2022-12-11T19:17:50.176Z,100449.69
2022-12-11T19:22:53.279Z,100453.78
2022-12-11T19:27:59.450Z,100451.59
2022-12-11T19:33:04.330Z,100457.03
2022-12-11T19:38:06.422Z,100446.72
2022-12-11T19:43:09.371Z,100456.50
2022-12-11T19:48:17.930Z,100461.41
2022-12-11T19:53:20.102Z,100468.50
2022-12-11T19:58:25.596Z,100465.81
2022-12-11T20:03:36.960Z,100466.91
2022-12-11T20:08:45.365Z,100476.16
2022-12-11T20:13:48.936Z,100482.44
2022-12-11T20:18:52.662Z,100491.44
2022-12-11T20:23:55.308Z,100495.25
2022-12-11T20:29:03.658Z,100488.47
2022-12-11T20:34:07.248Z,100474.31
2022-12-11T20:39:10.181Z,100465.06
2022-12-11T20:44:15.000Z,100480.03
2022-12-11T20:49:16.945Z,100480.84
2022-12-11T20:54:20.506Z,100480.03
2022-12-11T20:59:22.720Z,100488.19
2022-12-11T21:04:24.892Z,100495.81
2022-12-11T21:09:27.948Z,100496.28
2022-12-11T21:14:31.978Z,100492.81
2022-12-11T21:19:34.172Z,100498.75
2022-12-11T21:24:36.724Z,100515.56
2022-12-11T21:29:44.568Z,100507.91
2022-12-11T21:34:46.627Z,100510.06
2022-12-11T21:39:48.748Z,100506.84
2022-12-11T21:50:16.340Z,100511.28
2022-12-11T21:55:18.464Z,100537.41
2022-12-11T22:00:21.176Z,100544.94
2022-12-11T22:05:23.188Z,100559.53
2022-12-11T22:10:25.251Z,100580.94
2022-12-11T22:15:27.218Z,100590.69
2022-12-11T22:20:29.701Z,100595.00
2022-12-11T22:25:31.522Z,100606.19
2022-12-11T22:30:33.510Z,100618.22
2022-12-11T22:35:35.643Z,100605.47
2022-12-11T22:40:42.026Z,100621.31
2022-12-11T22:45:43.964Z,100633.03
2022-12-11T22:50:45.987Z,100625.47
2022-12-11T22:55:51.609Z,100648.91
2022-12-11T23:00:53.653Z,100662.81
2022-12-11T23:05:55.634Z,100655.22
2022-12-11T23:10:57.698Z,100662.59
2022-12-11T23:16:00.105Z,100673.19
2022-12-11T23:21:09.051Z,100668.59
2022-12-11T23:26:14.855Z,100673.75
2022-12-11T23:31:18.138Z,100679.19
2022-12-11T23:36:21.167Z,100688.66
2022-12-11T23:41:26.672Z,100671.53
2022-12-11T23:46:39.037Z,100662.28
2022-12-11T23:51:47.567Z,100670.97
2022-12-11T23:56:49.534Z,100663.69
